Time;durP1;ratioP1;P1;durP2;ratioP2;P2;SDS_P1;SDS_P2;PMS_P1;PMS_P2;Temp;Humidity;BMP_temperature;BMP_pressure;BME280_temperature;BME280_humidity;BME280_pressure;Samples;Min_cycle;Max_cycle;Signal;HPM_P1;HPM_P2
2021/10/23 00:00:40;;;;;;;1.45;0.98;;;;;;;;;;5033415;28;20120;-51
2021/10/23 00:03:06;;;;;;;10.25;1.50;;;;;;;;;;5033188;28;20021;-51
2021/10/23 00:05:32;;;;;;;1.00;0.90;;;;;;;;;;5031898;28;20304;-51
2021/10/23 00:07:58;;;;;;;3.83;1.15;;;;;;;;;;5032832;28;20037;-51
2021/10/23 00:10:25;;;;;;;3.95;0.90;;;;;;;;;;5032892;28;20026;-51
2021/10/23 00:12:51;;;;;;;12.10;1.20;;;;;;;;;;5032783;28;20033;-52
2021/10/23 00:15:17;;;;;;;2.65;1.27;;;;;;;;;;5032286;28;20535;-51
2021/10/23 00:17:43;;;;;;;2.70;1.58;;;;;;;;;;5032609;28;20022;-52
2021/10/23 00:20:09;;;;;;;3.95;1.05;;;;;;;;;;5032975;28;20375;-51
2021/10/23 00:22:35;;;;;;;3.63;1.27;;;;;;;;;;5033020;28;20018;-51
2021/10/23 00:25:01;;;;;;;4.00;1.98;;;;;;;;;;5029634;28;20030;-52
2021/10/23 00:27:28;;;;;;;8.32;1.40;;;;;;;;;;5033198;28;20014;-51
2021/10/23 00:29:54;;;;;;;0.98;0.85;;;;;;;;;;5032744;28;20391;-52
2021/10/23 00:32:20;;;;;;;1.55;1.30;;;;;;;;;;5032956;28;20029;-52
2021/10/23 00:34:46;;;;;;;2.42;1.55;;;;;;;;;;5031717;28;20024;-52
2021/10/23 00:37:12;;;;;;;5.47;1.80;;;;;;;;;;5032360;28;20048;-51
2021/10/23 00:39:39;;;;;;;2.78;0.90;;;;;;;;;;5032678;28;20417;-52
2021/10/23 00:42:05;;;;;;;3.28;1.38;;;;;;;;;;5033100;28;20025;-52
2021/10/23 00:44:31;;;;;;;2.67;1.40;;;;;;;;;;5031918;28;20112;-52
2021/10/23 00:47:00;;;;;;;4.03;1.45;;;;;;;;;;5032873;28;20041;-52
2021/10/23 00:49:26;;;;;;;7.60;1.85;;;;;;;;;;5032458;28;20025;-52
2021/10/23 00:51:52;;;;;;;4.93;1.60;;;;;;;;;;5032194;28;20033;-52
2021/10/23 00:54:19;;;;;;;8.40;2.08;;;;;;;;;;5033529;28;20359;-52
2021/10/23 00:56:45;;;;;;;4.47;1.50;;;;;;;;;;5036575;28;20112;-52
2021/10/23 00:59:11;;;;;;;3.55;1.30;;;;;;;;;;5036635;28;20120;-52
2021/10/23 01:01:37;;;;;;;2.70;1.40;;;;;;;;;;5036444;28;20026;-51
2021/10/23 01:04:03;;;;;;;4.60;1.23;;;;;;;;;;5035475;28;20444;-51
2021/10/23 01:06:29;;;;;;;4.55;1.75;;;;;;;;;;5036170;28;20080;-51
2021/10/23 01:08:55;;;;;;;2.55;1.20;;;;;;;;;;5036206;28;20573;-51
2021/10/23 01:11:21;;;;;;;1.20;1.10;;;;;;;;;;5036287;28;20033;-51
2021/10/23 01:13:47;;;;;;;3.83;1.52;;;;;;;;;;5035180;28;20039;-52
2021/10/23 01:16:13;;;;;;;4.40;1.27;;;;;;;;;;5036073;28;20033;-52
2021/10/23 01:18:43;;;;;;;4.15;1.90;;;;;;;;;;5036403;28;20030;-52
2021/10/23 01:21:09;;;;;;;2.80;1.60;;;;;;;;;;5035880;28;20037;-52
2021/10/23 01:23:35;;;;;;;1.90;1.13;;;;;;;;;;5035306;28;20025;-52
2021/10/23 01:26:02;;;;;;;1.75;1.25;;;;;;;;;;5036039;28;20109;-52
2021/10/23 01:28:29;;;;;;;2.03;1.13;;;;;;;;;;5035873;28;20021;-52
2021/10/23 01:30:58;;;;;;;4.15;1.30;;;;;;;;;;5035598;28;20069;-52
2021/10/23 01:33:24;;;;;;;7.68;1.40;;;;;;;;;;5035640;28;20101;-52
2021/10/23 01:35:50;;;;;;;3.15;1.02;;;;;;;;;;5035192;28;20025;-52
2021/10/23 01:38:16;;;;;;;2.50;1.30;;;;;;;;;;5035399;28;20038;-52
2021/10/23 01:40:42;;;;;;;3.80;1.33;;;;;;;;;;5035662;28;20053;-51
2021/10/23 01:43:09;;;;;;;10.85;1.48;;;;;;;;;;5034185;28;20120;-52
2021/10/23 01:45:35;;;;;;;4.35;1.23;;;;;;;;;;5034263;28;20048;-52
2021/10/23 01:48:01;;;;;;;3.90;1.38;;;;;;;;;;5035528;28;20021;-52
2021/10/23 01:50:28;;;;;;;4.57;1.20;;;;;;;;;;5035350;28;20036;-52
2021/10/23 01:52:55;;;;;;;1.88;1.52;;;;;;;;;;5035486;28;20025;-52
2021/10/23 01:55:22;;;;;;;3.20;1.67;;;;;;;;;;5034242;28;20362;-51
2021/10/23 01:57:48;;;;;;;3.55;1.55;;;;;;;;;;5035384;28;20021;-52
2021/10/23 02:00:15;;;;;;;1.95;1.25;;;;;;;;;;5035217;28;20029;-52
2021/10/23 02:02:41;;;;;;;4.88;1.65;;;;;;;;;;5034841;28;20356;-52
2021/10/23 02:05:08;;;;;;;5.60;3.13;;;;;;;;;;5034302;28;20040;-52
2021/10/23 02:07:35;;;;;;;2.00;1.38;;;;;;;;;;5035286;28;20029;-52
2021/10/23 02:10:01;;;;;;;6.53;1.13;;;;;;;;;;5034832;28;20353;-52
2021/10/23 02:12:27;;;;;;;2.17;1.00;;;;;;;;;;5035113;28;20446;-52
2021/10/23 02:14:53;;;;;;;1.75;1.10;;;;;;;;;;5034210;28;20021;-51
2021/10/23 02:17:20;;;;;;;5.32;1.55;;;;;;;;;;5035095;28;20057;-51
2021/10/23 02:19:46;;;;;;;1.35;1.05;;;;;;;;;;5035063;28;20029;-52
2021/10/23 02:22:12;;;;;;;1.95;1.33;;;;;;;;;;5034971;28;20017;-52
2021/10/23 02:24:38;;;;;;;3.00;1.52;;;;;;;;;;5033700;28;20517;-52
2021/10/23 02:27:04;;;;;;;3.40;2.00;;;;;;;;;;5034951;28;20033;-52
2021/10/23 02:29:30;;;;;;;0.82;0.80;;;;;;;;;;5034326;28;20455;-52
2021/10/23 02:31:56;;;;;;;10.48;2.30;;;;;;;;;;5034866;28;20035;-52
2021/10/23 02:34:22;;;;;;;3.47;1.05;;;;;;;;;;5033511;28;20029;-52
2021/10/23 02:36:48;;;;;;;2.25;1.27;;;;;;;;;;5034734;28;20397;-52
2021/10/23 02:39:14;;;;;;;1.92;1.10;;;;;;;;;;5034668;28;20105;-52
2021/10/23 02:41:39;;;;;;;2.78;1.10;;;;;;;;;;5034601;28;20035;-52
2021/10/23 02:44:06;;;;;;;2.13;1.10;;;;;;;;;;5033494;28;20017;-52
2021/10/23 02:46:32;;;;;;;2.30;1.25;;;;;;;;;;5034467;28;20120;-52
2021/10/23 02:48:58;;;;;;;2.10;1.13;;;;;;;;;;5034392;28;20487;-52
2021/10/23 02:51:24;;;;;;;2.42;1.35;;;;;;;;;;5034203;28;20071;-52
2021/10/23 02:53:50;;;;;;;4.63;1.42;;;;;;;;;;5042884;28;20082;-52
2021/10/23 02:56:16;;;;;;;4.25;1.00;;;;;;;;;;5053507;28;20363;-52
2021/10/23 02:58:42;;;;;;;7.22;1.83;;;;;;;;;;5053933;28;20036;-51
2021/10/23 03:01:08;;;;;;;7.35;1.45;;;;;;;;;;5054435;28;20025;-52
2021/10/23 03:03:34;;;;;;;3.65;1.38;;;;;;;;;;5053361;28;20104;-51
2021/10/23 03:06:00;;;;;;;3.80;1.63;;;;;;;;;;5054003;28;20332;-52
2021/10/23 03:08:26;;;;;;;1.30;1.00;;;;;;;;;;5052482;28;20534;-52
2021/10/23 03:10:52;;;;;;;8.02;1.60;;;;;;;;;;5050792;28;20414;-53
2021/10/23 03:13:18;;;;;;;7.20;1.55;;;;;;;;;;5053916;28;20021;-51
2021/10/23 03:15:44;;;;;;;4.20;1.45;;;;;;;;;;5052974;28;20025;-52
2021/10/23 03:18:10;;;;;;;1.75;1.27;;;;;;;;;;5052965;28;20017;-52
2021/10/23 03:20:36;;;;;;;10.75;1.35;;;;;;;;;;5053921;28;20036;-52
2021/10/23 03:23:02;;;;;;;5.05;1.35;;;;;;;;;;5053327;28;20033;-52
2021/10/23 03:25:28;;;;;;;1.55;1.23;;;;;;;;;;5053168;28;20076;-52
2021/10/23 03:27:54;;;;;;;4.65;1.27;;;;;;;;;;5053533;28;20067;-52
2021/10/23 03:30:20;;;;;;;3.15;1.52;;;;;;;;;;5041336;28;20037;-52
2021/10/23 03:32:46;;;;;;;1.85;1.50;;;;;;;;;;5033202;28;20456;-52
2021/10/23 03:35:12;;;;;;;3.80;1.33;;;;;;;;;;5033377;28;20056;-52
2021/10/23 03:37:38;;;;;;;4.50;1.85;;;;;;;;;;5033366;28;20036;-51
2021/10/23 03:40:06;;;;;;;4.95;2.35;;;;;;;;;;5033594;28;20030;-52
2021/10/23 03:42:32;;;;;;;3.35;1.38;;;;;;;;;;5033370;28;20032;-51
2021/10/23 03:44:58;;;;;;;5.07;1.48;;;;;;;;;;5032738;28;20036;-51
2021/10/23 03:47:24;;;;;;;1.13;1.02;;;;;;;;;;5033104;28;20026;-52
2021/10/23 03:49:50;;;;;;;5.15;1.38;;;;;;;;;;5033248;28;20018;-51
2021/10/23 03:52:16;;;;;;;3.70;1.27;;;;;;;;;;5033472;28;20021;-52
2021/10/23 03:54:42;;;;;;;7.55;1.77;;;;;;;;;;5032347;28;20022;-52
2021/10/23 03:57:08;;;;;;;4.72;1.65;;;;;;;;;;5033344;28;20363;-52
2021/10/23 03:59:34;;;;;;;3.33;1.40;;;;;;;;;;5033276;28;20104;-52
2021/10/23 04:02:00;;;;;;;3.50;1.42;;;;;;;;;;5032892;28;20040;-51
2021/10/23 04:04:26;;;;;;;5.88;1.67;;;;;;;;;;5032024;28;20025;-52
2021/10/23 04:06:53;;;;;;;4.00;1.25;;;;;;;;;;5033260;28;20108;-51
2021/10/23 04:09:19;;;;;;;2.90;1.67;;;;;;;;;;5032998;28;20029;-51
2021/10/23 04:11:46;;;;;;;7.53;1.50;;;;;;;;;;5033157;28;20025;-52
2021/10/23 04:14:12;;;;;;;5.50;1.70;;;;;;;;;;5032207;28;20407;-51
2021/10/23 04:16:39;;;;;;;3.65;1.88;;;;;;;;;;5032719;28;20029;-52
2021/10/23 04:19:05;;;;;;;5.30;1.63;;;;;;;;;;5033190;28;20096;-51
2021/10/23 04:21:31;;;;;;;3.25;1.80;;;;;;;;;;5032707;28;20112;-52
2021/10/23 04:23:58;;;;;;;3.72;1.63;;;;;;;;;;5032088;28;20028;-52
2021/10/23 04:26:24;;;;;;;6.28;1.60;;;;;;;;;;5032526;28;20038;-52
2021/10/23 04:28:50;;;;;;;2.58;1.20;;;;;;;;;;5033437;28;20025;-52
2021/10/23 04:31:15;;;;;;;1.60;1.10;;;;;;;;;;5036755;28;20455;-51
2021/10/23 04:33:42;;;;;;;6.35;1.83;;;;;;;;;;5036130;28;20467;-52
2021/10/23 04:36:08;;;;;;;9.10;2.10;;;;;;;;;;5036936;28;20106;-52
2021/10/23 04:38:34;;;;;;;1.67;1.25;;;;;;;;;;5036648;28;20057;-52
2021/10/23 04:41:00;;;;;;;5.80;1.73;;;;;;;;;;5036744;28;20443;-52
2021/10/23 04:43:26;;;;;;;2.10;1.17;;;;;;;;;;5036369;28;20022;-52
2021/10/23 04:45:52;;;;;;;10.43;1.33;;;;;;;;;;5036217;28;20040;-52
2021/10/23 04:48:18;;;;;;;4.20;1.50;;;;;;;;;;5036604;28;20454;-52
2021/10/23 04:50:44;;;;;;;1.75;1.15;;;;;;;;;;5036593;28;20041;-52
2021/10/23 04:53:10;;;;;;;4.53;1.63;;;;;;;;;;5036443;28;20427;-52
2021/10/23 04:55:36;;;;;;;5.45;1.70;;;;;;;;;;5035821;28;20028;-51
2021/10/23 04:58:02;;;;;;;5.35;1.38;;;;;;;;;;5035979;28;20026;-51
2021/10/23 05:00:28;;;;;;;2.90;1.73;;;;;;;;;;5036163;28;20033;-52
2021/10/23 05:02:54;;;;;;;6.25;1.60;;;;;;;;;;5036592;28;20025;-52
2021/10/23 05:05:20;;;;;;;1.95;1.30;;;;;;;;;;5035559;28;20037;-51
2021/10/23 05:07:46;;;;;;;9.35;1.90;;;;;;;;;;5036161;28;20029;-52
2021/10/23 05:10:15;;;;;;;3.33;1.30;;;;;;;;;;5036160;28;20025;-52
2021/10/23 05:12:42;;;;;;;4.10;1.40;;;;;;;;;;5035968;28;20032;-52
2021/10/23 05:15:08;;;;;;;3.05;1.90;;;;;;;;;;5035142;28;20447;-52
2021/10/23 05:17:34;;;;;;;7.00;1.67;;;;;;;;;;5036477;28;20025;-52
2021/10/23 05:20:00;;;;;;;2.50;1.13;;;;;;;;;;5036067;28;20569;-52
2021/10/23 05:22:26;;;;;;;6.32;1.80;;;;;;;;;;5036137;28;20108;-51
2021/10/23 05:24:52;;;;;;;5.55;2.03;;;;;;;;;;5035070;28;20370;-51
2021/10/23 05:27:18;;;;;;;1.95;1.05;;;;;;;;;;5035990;28;20014;-51
2021/10/23 05:29:44;;;;;;;6.68;2.05;;;;;;;;;;5035458;28;20127;-51
2021/10/23 05:32:10;;;;;;;5.50;1.70;;;;;;;;;;5035894;28;20022;-51
2021/10/23 05:34:36;;;;;;;5.95;1.60;;;;;;;;;;5035068;28;20084;-51
2021/10/23 05:37:02;;;;;;;7.13;1.77;;;;;;;;;;5035641;28;20029;-51
2021/10/23 05:39:28;;;;;;;2.42;1.25;;;;;;;;;;5035164;28;20124;-51
2021/10/23 05:41:54;;;;;;;3.05;1.40;;;;;;;;;;5035372;28;20359;-51
2021/10/23 05:44:20;;;;;;;1.60;1.10;;;;;;;;;;5034778;28;20431;-52
2021/10/23 05:46:46;;;;;;;4.63;1.20;;;;;;;;;;5036084;28;20394;-52
2021/10/23 05:49:12;;;;;;;2.03;1.50;;;;;;;;;;5035496;28;20025;-52
2021/10/23 05:51:38;;;;;;;3.50;1.60;;;;;;;;;;5035865;28;20033;-52
2021/10/23 05:54:04;;;;;;;5.18;1.52;;;;;;;;;;5034756;28;20028;-52
2021/10/23 05:56:30;;;;;;;4.82;1.90;;;;;;;;;;5034906;28;20398;-51
2021/10/23 05:59:10;;;;;;;5.45;1.58;;;;;;;;;;5035489;28;20082;-52
2021/10/23 06:01:36;;;;;;;5.40;1.67;;;;;;;;;;5035327;28;20082;-51
2021/10/23 06:04:02;;;;;;;4.85;1.65;;;;;;;;;;5035067;28;20407;-51
2021/10/23 06:06:28;;;;;;;4.13;1.73;;;;;;;;;;5035168;28;20033;-52
2021/10/23 06:08:55;;;;;;;4.97;1.50;;;;;;;;;;5034986;28;20017;-51
2021/10/23 06:11:21;;;;;;;4.07;2.28;;;;;;;;;;5034893;28;20481;-52
2021/10/23 06:13:47;;;;;;;4.78;1.23;;;;;;;;;;5034644;28;20033;-51
2021/10/23 06:16:14;;;;;;;3.25;1.35;;;;;;;;;;5034714;28;20372;-51
2021/10/23 06:18:40;;;;;;;3.22;1.70;;;;;;;;;;5035044;28;20071;-52
2021/10/23 06:21:06;;;;;;;5.05;1.50;;;;;;;;;;5035117;28;20030;-51
2021/10/23 06:23:32;;;;;;;13.30;2.05;;;;;;;;;;5034160;28;20099;-51
2021/10/23 06:25:59;;;;;;;2.90;1.42;;;;;;;;;;5033037;28;20529;-51
2021/10/23 06:28:25;;;;;;;2.55;1.40;;;;;;;;;;5034886;28;20025;-52
2021/10/23 06:30:51;;;;;;;5.05;1.73;;;;;;;;;;5034537;28;20037;-52
2021/10/23 06:33:18;;;;;;;3.63;1.50;;;;;;;;;;5034642;28;20022;-52
2021/10/23 06:35:44;;;;;;;2.90;1.95;;;;;;;;;;5033998;28;20037;-52
2021/10/23 06:38:10;;;;;;;1.63;1.38;;;;;;;;;;5034668;28;20082;-52
2021/10/23 06:40:36;;;;;;;3.15;2.10;;;;;;;;;;5034761;28;20347;-52
2021/10/23 06:43:02;;;;;;;6.35;1.98;;;;;;;;;;5034294;28;20436;-52
2021/10/23 06:45:28;;;;;;;3.60;1.83;;;;;;;;;;5033875;28;20038;-52
2021/10/23 06:47:56;;;;;;;3.00;1.58;;;;;;;;;;5034500;28;20067;-52
2021/10/23 06:50:23;;;;;;;6.95;2.28;;;;;;;;;;5034052;28;20187;-52
2021/10/23 06:52:49;;;;;;;3.67;1.60;;;;;;;;;;5033299;28;20167;-52
2021/10/23 06:55:15;;;;;;;7.55;1.45;;;;;;;;;;5033653;28;20100;-52
2021/10/23 06:57:46;;;;;;;3.40;1.73;;;;;;;;;;5033966;28;20025;-51
2021/10/23 07:00:12;;;;;;;3.50;2.22;;;;;;;;;;5034385;28;20025;-50
2021/10/23 07:02:39;;;;;;;7.95;2.08;;;;;;;;;;5033591;28;20026;-50
2021/10/23 07:05:06;;;;;;;5.72;2.22;;;;;;;;;;5033511;28;20032;-50
2021/10/23 07:07:32;;;;;;;5.13;1.83;;;;;;;;;;5034028;28;20348;-51
2021/10/23 07:09:58;;;;;;;8.77;1.80;;;;;;;;;;5034279;28;20029;-50
2021/10/23 07:12:23;;;;;;;7.40;2.35;;;;;;;;;;5033961;28;20347;-50
2021/10/23 07:14:50;;;;;;;5.55;1.95;;;;;;;;;;5033287;28;20018;-50
2021/10/23 07:17:16;;;;;;;7.82;1.85;;;;;;;;;;5033721;28;20466;-50
2021/10/23 07:19:42;;;;;;;8.70;1.52;;;;;;;;;;5033995;28;20029;-50
2021/10/23 07:22:08;;;;;;;2.50;1.42;;;;;;;;;;5033419;28;20403;-51
2021/10/23 07:24:34;;;;;;;5.95;1.50;;;;;;;;;;5032892;28;20033;-51
2021/10/23 07:27:00;;;;;;;1.65;1.42;;;;;;;;;;5033793;28;20329;-50
2021/10/23 07:29:26;;;;;;;1.98;1.40;;;;;;;;;;5033629;28;20041;-51
2021/10/23 07:31:52;;;;;;;2.45;1.73;;;;;;;;;;5033175;28;20117;-50
2021/10/23 07:34:18;;;;;;;1.30;1.17;;;;;;;;;;5033188;28;20026;-50
2021/10/23 07:36:44;;;;;;;3.40;1.27;;;;;;;;;;5033355;28;20026;-50
2021/10/23 07:39:10;;;;;;;3.63;1.58;;;;;;;;;;5033709;28;20022;-50
2021/10/23 07:41:38;;;;;;;1.90;1.52;;;;;;;;;;5033499;28;20022;-50
2021/10/23 07:44:04;;;;;;;4.25;1.63;;;;;;;;;;5032673;28;20052;-50
2021/10/23 07:46:31;;;;;;;9.13;1.88;;;;;;;;;;5032785;28;20041;-50
2021/10/23 07:48:57;;;;;;;1.75;1.52;;;;;;;;;;5033465;28;20029;-51
2021/10/23 07:51:23;;;;;;;5.43;1.90;;;;;;;;;;5033227;28;20475;-51
2021/10/23 07:53:49;;;;;;;8.23;1.98;;;;;;;;;;5032378;28;20026;-51
2021/10/23 07:56:15;;;;;;;4.93;1.92;;;;;;;;;;5033084;28;20436;-51
2021/10/23 07:58:41;;;;;;;4.57;1.20;;;;;;;;;;5033658;28;20100;-51
2021/10/23 08:01:07;;;;;;;5.18;1.63;;;;;;;;;;5032881;28;20359;-51
2021/10/23 08:03:33;;;;;;;3.45;1.80;;;;;;;;;;5032383;28;20043;-51
2021/10/23 08:05:59;;;;;;;2.78;1.35;;;;;;;;;;5033067;28;20044;-51
2021/10/23 08:08:25;;;;;;;3.85;1.77;;;;;;;;;;5033261;28;20021;-51
2021/10/23 08:10:51;;;;;;;6.28;1.52;;;;;;;;;;5033000;28;20052;-51
2021/10/23 08:13:17;;;;;;;5.65;2.45;;;;;;;;;;5032929;28;20017;-51
2021/10/23 08:15:44;;;;;;;2.90;1.75;;;;;;;;;;5032022;28;20430;-51
2021/10/23 08:18:10;;;;;;;7.63;1.88;;;;;;;;;;5032595;28;20439;-51
2021/10/23 08:20:36;;;;;;;6.47;1.40;;;;;;;;;;5032939;28;20030;-51
2021/10/23 08:23:03;;;;;;;4.03;1.80;;;;;;;;;;5033021;28;20025;-51
2021/10/23 08:25:29;;;;;;;10.07;2.03;;;;;;;;;;5032065;28;20447;-51
2021/10/23 08:27:55;;;;;;;5.18;1.92;;;;;;;;;;5032738;28;20025;-51
2021/10/23 08:30:21;;;;;;;6.93;2.08;;;;;;;;;;5032674;28;20812;-51
2021/10/23 08:32:49;;;;;;;2.85;1.60;;;;;;;;;;5032763;28;20037;-51
2021/10/23 08:35:15;;;;;;;7.45;2.00;;;;;;;;;;5032362;28;20407;-51
2021/10/23 08:37:42;;;;;;;8.57;2.72;;;;;;;;;;5032490;28;20351;-51
2021/10/23 08:40:08;;;;;;;8.52;2.20;;;;;;;;;;5032624;28;20470;-51
2021/10/23 08:42:34;;;;;;;4.55;1.98;;;;;;;;;;5032317;28;20031;-51
2021/10/23 08:45:02;;;;;;;10.90;2.58;;;;;;;;;;5031925;28;20034;-51
2021/10/23 08:47:28;;;;;;;3.75;1.92;;;;;;;;;;5032529;28;20033;-50
2021/10/23 08:49:57;;;;;;;3.10;1.80;;;;;;;;;;5032544;28;20436;-50
2021/10/23 08:52:23;;;;;;;4.78;2.53;;;;;;;;;;5032394;28;20029;-51
2021/10/23 08:54:49;;;;;;;7.28;2.50;;;;;;;;;;5031601;28;20056;-51
2021/10/23 08:57:15;;;;;;;6.53;1.73;;;;;;;;;;5032232;28;20021;-51
2021/10/23 08:59:44;;;;;;;4.80;1.98;;;;;;;;;;5032870;28;20272;-51
2021/10/23 09:02:10;;;;;;;4.20;1.70;;;;;;;;;;5032414;28;20414;-51
2021/10/23 09:04:36;;;;;;;7.03;2.58;;;;;;;;;;5031941;28;20113;-51
2021/10/23 09:07:09;;;;;;;7.43;1.92;;;;;;;;;;5032590;28;20033;-51
2021/10/23 09:09:54;;;;;;;6.70;2.63;;;;;;;;;;5032602;28;20048;-51
2021/10/23 09:12:24;;;;;;;7.22;1.75;;;;;;;;;;5032467;28;20060;-51
2021/10/23 09:15:06;;;;;;;4.80;2.67;;;;;;;;;;5032868;28;20029;-51
2021/10/23 09:17:33;;;;;;;8.18;2.55;;;;;;;;;;5035887;28;20036;-51
2021/10/23 09:20:04;;;;;;;4.97;2.08;;;;;;;;;;5035844;28;20101;-50
2021/10/23 09:22:34;;;;;;;6.03;2.65;;;;;;;;;;5035869;28;20113;-51
2021/10/23 09:25:09;;;;;;;7.53;2.05;;;;;;;;;;5035495;28;20043;-50
2021/10/23 09:27:35;;;;;;;4.40;2.33;;;;;;;;;;5036104;28;20037;-50
2021/10/23 09:30:02;;;;;;;7.90;3.05;;;;;;;;;;5035611;28;20029;-51
2021/10/23 09:32:34;;;;;;;5.80;2.92;;;;;;;;;;5035598;28;20033;-51
2021/10/23 09:35:16;;;;;;;6.30;2.08;;;;;;;;;;5035002;28;20033;-51
2021/10/23 09:37:44;;;;;;;9.73;2.55;;;;;;;;;;5035884;28;20025;-50
2021/10/23 09:40:10;;;;;;;5.63;2.13;;;;;;;;;;5036036;28;20033;-50
2021/10/23 09:42:36;;;;;;;8.52;3.13;;;;;;;;;;5035609;28;20029;-50
2021/10/23 09:45:05;;;;;;;3.95;1.80;;;;;;;;;;5034880;28;20036;-51
2021/10/23 09:47:39;;;;;;;5.25;2.55;;;;;;;;;;5034936;28;20061;-50
2021/10/23 09:50:05;;;;;;;3.35;1.20;;;;;;;;;;5035953;28;20033;-51
2021/10/23 09:52:35;;;;;;;10.60;2.63;;;;;;;;;;5035718;28;20393;-50
2021/10/23 09:55:08;;;;;;;4.20;2.63;;;;;;;;;;5034782;28;20277;-51
2021/10/23 09:57:34;;;;;;;5.78;1.70;;;;;;;;;;5035023;28;20112;-51
2021/10/23 10:00:06;;;;;;;3.47;1.90;;;;;;;;;;5035371;28;20026;-51
2021/10/23 10:02:33;;;;;;;2.35;1.05;;;;;;;;;;5035052;28;20462;-50
2021/10/23 10:04:59;;;;;;;5.85;2.10;;;;;;;;;;5034419;28;20036;-50
2021/10/23 10:07:25;;;;;;;9.52;2.15;;;;;;;;;;5035262;28;20064;-51
2021/10/23 10:09:51;;;;;;;3.97;1.63;;;;;;;;;;5035259;28;20113;-51
2021/10/23 10:12:17;;;;;;;2.70;1.40;;;;;;;;;;5035035;28;20069;-50
2021/10/23 10:14:44;;;;;;;2.70;1.80;;;;;;;;;;5033847;28;20083;-50
2021/10/23 10:17:10;;;;;;;2.10;1.38;;;;;;;;;;5035175;28;20078;-50
2021/10/23 10:19:35;;;;;;;2.40;1.50;;;;;;;;;;5034855;28;20022;-49
2021/10/23 10:22:08;;;;;;;3.40;1.80;;;;;;;;;;5034728;28;20029;-50
2021/10/23 10:24:38;;;;;;;10.02;2.38;;;;;;;;;;5034426;28;20040;-49
2021/10/23 10:27:07;;;;;;;7.28;1.95;;;;;;;;;;5035216;28;20115;-49
2021/10/23 10:29:39;;;;;;;4.07;2.22;;;;;;;;;;5034395;28;20029;-50
2021/10/23 10:32:15;;;;;;;1.88;1.67;;;;;;;;;;5035055;28;20029;-50
2021/10/23 10:42:57;;;;;;;2.78;1.58;;;;;;;;;;5034518;28;20037;-49
2021/10/23 10:45:23;;;;;;;4.63;2.28;;;;;;;;;;5033768;28;20071;-49
2021/10/23 10:48:21;;;;;;;8.95;1.40;;;;;;;;;;5033920;28;20036;-50
2021/10/23 10:50:52;;;;;;;2.25;1.40;;;;;;;;;;5029697;28;20041;-50
2021/10/23 10:53:21;;;;;;;4.72;1.80;;;;;;;;;;5034244;28;20026;-50
2021/10/23 10:55:49;;;;;;;1.42;1.10;;;;;;;;;;5033401;28;20481;-50
2021/10/23 10:58:15;;;;;;;2.88;1.70;;;;;;;;;;5034256;28;20057;-50
2021/10/23 11:00:53;;;;;;;2.17;1.00;;;;;;;;;;5034292;28;20029;-50
2021/10/23 11:03:46;;;;;;;10.45;1.95;;;;;;;;;;5034315;28;20025;-50
2021/10/23 11:06:34;;;;;;;3.05;1.50;;;;;;;;;;5033009;28;20110;-50
2021/10/23 11:09:12;;;;;;;5.63;1.80;;;;;;;;;;5034019;28;20025;-50
2021/10/23 11:11:47;;;;;;;3.75;1.70;;;;;;;;;;5034253;28;20021;-50
2021/10/23 11:14:20;;;;;;;7.72;2.10;;;;;;;;;;5033560;28;20041;-50
2021/10/23 11:16:59;;;;;;;3.40;1.88;;;;;;;;;;5033891;28;20031;-50
2021/10/23 11:19:32;;;;;;;3.60;1.50;;;;;;;;;;5033569;28;20033;-50
2021/10/23 11:21:59;;;;;;;3.95;1.67;;;;;;;;;;5033722;28;20029;-50
2021/10/23 11:24:25;;;;;;;2.35;1.42;;;;;;;;;;5032953;28;20116;-50
2021/10/23 11:26:51;;;;;;;5.10;1.73;;;;;;;;;;5033811;28;20362;-50
2021/10/23 11:29:21;;;;;;;4.55;1.80;;;;;;;;;;5033618;28;20213;-49
2021/10/23 11:31:48;;;;;;;3.10;1.77;;;;;;;;;;5033406;28;20045;-50
2021/10/23 11:34:23;;;;;;;2.88;1.98;;;;;;;;;;5032742;28;20061;-50
2021/10/23 11:37:04;;;;;;;6.20;2.30;;;;;;;;;;5033904;28;20021;-49
2021/10/23 11:39:37;;;;;;;2.15;1.60;;;;;;;;;;5033420;28;20096;-49
2021/10/23 11:42:15;;;;;;;2.25;1.73;;;;;;;;;;5033373;28;20033;-50
2021/10/23 11:44:42;;;;;;;4.75;2.00;;;;;;;;;;5032340;28;20455;-49
2021/10/23 11:47:08;;;;;;;2.90;1.30;;;;;;;;;;5033428;28;20076;-50
2021/10/23 11:49:35;;;;;;;2.38;1.10;;;;;;;;;;5033172;28;20025;-51
2021/10/23 11:52:01;;;;;;;1.60;1.33;;;;;;;;;;5033203;28;20052;-50
2021/10/23 11:54:28;;;;;;;1.90;1.00;;;;;;;;;;5032384;28;20351;-50
2021/10/23 11:56:54;;;;;;;5.70;1.25;;;;;;;;;;5033470;28;20029;-50
2021/10/23 11:59:24;;;;;;;1.90;1.23;;;;;;;;;;5033162;28;20021;-50
2021/10/23 12:01:50;;;;;;;3.85;1.45;;;;;;;;;;5033719;28;20025;-50
2021/10/23 12:04:17;;;;;;;4.90;1.70;;;;;;;;;;5032117;28;20021;-50
2021/10/23 12:06:44;;;;;;;3.10;1.30;;;;;;;;;;5033177;28;20036;-49
2021/10/23 12:09:18;;;;;;;2.33;1.50;;;;;;;;;;5032871;28;20463;-49
2021/10/23 12:11:44;;;;;;;5.20;2.40;;;;;;;;;;5032005;28;20358;-50
2021/10/23 12:14:12;;;;;;;7.40;2.40;;;;;;;;;;5032331;28;20459;-49
2021/10/23 12:16:42;;;;;;;3.67;1.45;;;;;;;;;;5033154;28;20036;-50
2021/10/23 12:19:08;;;;;;;2.65;2.00;;;;;;;;;;5032550;28;20032;-50
2021/10/23 12:21:36;;;;;;;3.20;1.73;;;;;;;;;;5032547;28;20034;-49
2021/10/23 12:24:11;;;;;;;1.83;1.50;;;;;;;;;;5032217;28;20022;-50
2021/10/23 12:26:37;;;;;;;4.07;2.25;;;;;;;;;;5031450;28;20037;-49
2021/10/23 12:29:07;;;;;;;5.05;1.90;;;;;;;;;;5032556;28;20104;-49
2021/10/23 12:31:52;;;;;;;2.00;1.58;;;;;;;;;;5032849;28;20124;-50
2021/10/23 12:34:18;;;;;;;3.70;1.75;;;;;;;;;;5032135;28;20095;-50
2021/10/23 12:36:51;;;;;;;5.07;2.17;;;;;;;;;;5032780;28;20439;-49
2021/10/23 12:39:34;;;;;;;3.13;1.52;;;;;;;;;;5032416;28;20030;-50
2021/10/23 12:42:00;;;;;;;5.03;1.58;;;;;;;;;;5032673;28;20531;-49
2021/10/23 12:44:27;;;;;;;2.78;1.40;;;;;;;;;;5032004;28;20312;-49
2021/10/23 12:46:53;;;;;;;6.03;1.77;;;;;;;;;;5032542;28;20033;-49
2021/10/23 12:49:22;;;;;;;2.17;1.55;;;;;;;;;;5033072;28;20068;-50
2021/10/23 12:51:49;;;;;;;2.15;1.63;;;;;;;;;;5036167;28;20036;-50
2021/10/23 12:54:16;;;;;;;5.25;1.70;;;;;;;;;;5035917;28;20032;-50
2021/10/23 12:56:43;;;;;;;2.63;1.60;;;;;;;;;;5036448;28;20022;-50
2021/10/23 12:59:08;;;;;;;3.30;1.90;;;;;;;;;;5038867;28;20030;-49
2021/10/23 13:01:35;;;;;;;4.05;1.52;;;;;;;;;;5047975;28;20052;-49
2021/10/23 13:04:01;;;;;;;4.95;1.80;;;;;;;;;;5048471;28;20032;-49
2021/10/23 13:06:27;;;;;;;1.48;1.30;;;;;;;;;;5056248;28;20043;-49
2021/10/23 13:08:53;;;;;;;3.08;1.50;;;;;;;;;;5056670;28;20029;-50
2021/10/23 13:11:19;;;;;;;7.65;2.10;;;;;;;;;;5056172;28;20113;-49
2021/10/23 13:13:46;;;;;;;6.63;3.35;;;;;;;;;;5055888;28;20107;-49
2021/10/23 13:16:12;;;;;;;6.32;2.85;;;;;;;;;;5056091;28;20033;-50
2021/10/23 13:18:38;;;;;;;5.93;2.60;;;;;;;;;;5056244;28;20036;-50
2021/10/23 13:21:04;;;;;;;3.90;2.33;;;;;;;;;;5056056;28;20025;-49
2021/10/23 13:23:30;;;;;;;5.20;2.80;;;;;;;;;;5055812;28;20082;-50
2021/10/23 13:25:56;;;;;;;5.20;2.55;;;;;;;;;;5055331;28;20039;-51
2021/10/23 13:28:22;;;;;;;7.03;2.15;;;;;;;;;;5056010;28;20103;-50
2021/10/23 13:30:48;;;;;;;3.55;2.33;;;;;;;;;;5055326;28;20450;-50
2021/10/23 13:33:14;;;;;;;6.10;2.25;;;;;;;;;;5055887;28;20017;-49
2021/10/23 13:35:40;;;;;;;4.97;2.42;;;;;;;;;;5054935;28;20154;-50
2021/10/23 13:38:06;;;;;;;10.27;2.50;;;;;;;;;;5055690;28;20062;-50
2021/10/23 13:40:32;;;;;;;3.90;2.38;;;;;;;;;;5055107;28;20021;-50
2021/10/23 13:42:59;;;;;;;4.75;2.17;;;;;;;;;;5055493;28;20548;-50
2021/10/23 13:45:25;;;;;;;4.75;2.00;;;;;;;;;;5054863;28;20094;-50
2021/10/23 13:47:51;;;;;;;3.80;2.25;;;;;;;;;;5055534;28;20025;-50
2021/10/23 13:50:17;;;;;;;6.25;2.35;;;;;;;;;;5055169;28;20025;-50
2021/10/23 13:52:43;;;;;;;5.30;2.65;;;;;;;;;;5055513;28;20025;-49
2021/10/23 13:55:10;;;;;;;4.55;1.67;;;;;;;;;;5054386;28;20170;-50
2021/10/23 13:57:37;;;;;;;4.00;1.92;;;;;;;;;;5055381;28;20032;-50
2021/10/23 14:00:04;;;;;;;4.40;1.80;;;;;;;;;;5055470;28;20021;-50
2021/10/23 14:02:31;;;;;;;3.15;1.65;;;;;;;;;;5055027;28;20067;-50
2021/10/23 14:04:57;;;;;;;6.00;2.45;;;;;;;;;;5054299;28;20021;-50
2021/10/23 14:07:23;;;;;;;3.80;1.75;;;;;;;;;;5054901;28;20406;-50
2021/10/23 14:09:49;;;;;;;2.40;1.77;;;;;;;;;;5055285;28;20351;-50
2021/10/23 14:12:15;;;;;;;4.10;1.95;;;;;;;;;;5054992;28;20445;-49
2021/10/23 14:14:41;;;;;;;5.28;2.28;;;;;;;;;;5054391;28;20337;-50
2021/10/23 14:17:07;;;;;;;4.55;1.98;;;;;;;;;;5055222;28;20028;-50
2021/10/23 14:19:33;;;;;;;4.28;2.35;;;;;;;;;;5055054;28;20020;-50
2021/10/23 14:21:59;;;;;;;3.97;2.45;;;;;;;;;;5054919;28;20020;-51
2021/10/23 14:24:26;;;;;;;2.80;2.22;;;;;;;;;;5053715;28;20443;-50
2021/10/23 14:26:54;;;;;;;4.38;2.42;;;;;;;;;;5054945;28;20074;-50
2021/10/23 14:29:20;;;;;;;4.38;2.33;;;;;;;;;;5054502;28;20351;-50
2021/10/23 14:31:46;;;;;;;8.02;2.30;;;;;;;;;;5054517;28;20056;-50
2021/10/23 14:34:12;;;;;;;3.72;1.98;;;;;;;;;;5054083;28;20028;-50
2021/10/23 14:36:38;;;;;;;3.55;2.20;;;;;;;;;;5054758;28;20025;-49
2021/10/23 14:39:05;;;;;;;5.82;2.30;;;;;;;;;;5053989;28;20147;-49
2021/10/23 14:41:31;;;;;;;6.35;2.13;;;;;;;;;;5054520;28;20025;-50
2021/10/23 14:43:57;;;;;;;4.47;1.90;;;;;;;;;;5053623;28;20404;-51
2021/10/23 14:46:23;;;;;;;6.20;1.83;;;;;;;;;;5054559;28;20033;-50
2021/10/23 14:48:49;;;;;;;4.25;2.53;;;;;;;;;;5054430;28;20446;-50
2021/10/23 14:51:16;;;;;;;4.68;2.42;;;;;;;;;;5053968;28;20025;-50